createdAt,value
2017-07-14T00:01:35.513Z,6.70
2017-07-14T00:04:02.172Z,4.10
2017-07-14T00:06:28.820Z,6.70
2017-07-14T00:08:55.466Z,7.53
2017-07-14T00:11:22.121Z,6.67
2017-07-14T00:13:48.757Z,4.93
2017-07-14T00:16:15.387Z,6.23
2017-07-14T00:18:42.080Z,4.90
2017-07-14T00:21:08.723Z,6.93
2017-07-14T00:23:35.359Z,7.80
2017-07-14T00:26:02.034Z,7.70
2017-07-14T00:28:28.692Z,6.47
2017-07-14T00:30:55.362Z,8.03
2017-07-14T00:33:22.032Z,6.87
2017-07-14T00:35:48.688Z,8.10
2017-07-14T00:38:15.328Z,6.10
2017-07-14T00:40:41.994Z,7.47
2017-07-14T00:43:08.655Z,5.63
2017-07-14T00:45:35.298Z,8.10
2017-07-14T00:48:01.968Z,8.73
2017-07-14T00:50:28.605Z,7.40
2017-07-14T00:52:55.254Z,5.87
2017-07-14T00:55:21.930Z,7.30
2017-07-14T00:57:48.573Z,8.60
2017-07-14T01:00:15.214Z,8.03
2017-07-14T01:02:41.885Z,10.47
2017-07-14T01:05:08.541Z,8.00
2017-07-14T01:07:35.204Z,7.70
2017-07-14T01:10:01.882Z,6.83
2017-07-14T01:12:28.529Z,8.97
2017-07-14T01:14:55.188Z,4.97
2017-07-14T01:17:21.862Z,5.37
2017-07-14T01:19:48.518Z,4.33
2017-07-14T01:22:15.179Z,5.77
2017-07-14T01:24:41.858Z,5.67
2017-07-14T01:27:08.519Z,5.40
2017-07-14T01:29:35.179Z,6.47
2017-07-14T01:32:01.854Z,7.50
2017-07-14T01:34:28.503Z,5.10
2017-07-14T01:36:55.135Z,5.60
2017-07-14T01:39:21.789Z,6.57
2017-07-14T01:41:48.427Z,4.70
2017-07-14T01:44:15.065Z,10.53
2017-07-14T01:46:41.731Z,8.50
2017-07-14T01:49:08.387Z,5.83
2017-07-14T01:51:35.034Z,6.40
2017-07-14T01:54:01.715Z,9.07
2017-07-14T01:56:28.367Z,11.30
2017-07-14T01:58:55.018Z,7.83
2017-07-14T02:01:21.697Z,12.73
2017-07-14T02:03:48.356Z,10.10
2017-07-14T02:06:15.021Z,13.20
2017-07-14T02:08:41.683Z,6.90
2017-07-14T02:11:08.342Z,9.63
2017-07-14T02:13:34.976Z,8.67
2017-07-14T02:16:01.646Z,8.40
2017-07-14T02:18:28.285Z,7.87
2017-07-14T02:20:54.929Z,9.33
2017-07-14T02:23:21.582Z,8.50
2017-07-14T02:25:48.226Z,10.70
2017-07-14T02:28:14.877Z,12.00
2017-07-14T02:30:41.570Z,8.90
2017-07-14T02:33:08.224Z,9.87
2017-07-14T02:35:34.940Z,11.93
2017-07-14T02:38:01.595Z,9.40
2017-07-14T02:40:28.227Z,8.10
2017-07-14T02:42:54.875Z,9.93
2017-07-14T02:45:21.560Z,10.43
2017-07-14T02:47:48.227Z,8.37
2017-07-14T02:50:14.885Z,9.80
2017-07-14T02:52:41.536Z,12.30
2017-07-14T02:55:08.188Z,9.70
2017-07-14T02:57:34.851Z,10.00
2017-07-14T03:00:01.524Z,8.73
2017-07-14T03:02:28.186Z,9.17
2017-07-14T03:04:54.851Z,11.03
2017-07-14T03:07:21.569Z,12.73
2017-07-14T03:09:48.227Z,13.30
2017-07-14T03:12:14.880Z,11.13
2017-07-14T03:14:41.541Z,11.03
2017-07-14T03:17:08.184Z,10.73
2017-07-14T03:19:34.849Z,14.90
2017-07-14T03:22:01.499Z,13.13
2017-07-14T03:24:28.151Z,13.10
2017-07-14T03:26:54.811Z,13.77
2017-07-14T03:29:21.478Z,14.60
2017-07-14T03:31:48.150Z,16.33
2017-07-14T03:34:14.810Z,14.17
2017-07-14T03:36:41.506Z,16.57
2017-07-14T03:39:08.155Z,14.93
2017-07-14T03:41:34.823Z,14.10
2017-07-14T03:44:01.493Z,16.23
2017-07-14T03:46:28.164Z,16.33
2017-07-14T03:48:54.817Z,18.00
2017-07-14T03:51:21.501Z,16.53
2017-07-14T03:53:48.175Z,25.80
2017-07-14T03:56:14.820Z,16.30
2017-07-14T03:58:41.492Z,17.97
2017-07-14T04:01:08.140Z,19.40
2017-07-14T04:03:34.802Z,23.03
2017-07-14T04:06:01.472Z,19.93
2017-07-14T04:08:28.136Z,22.13
2017-07-14T04:10:54.788Z,18.33
2017-07-14T04:13:21.483Z,19.77
2017-07-14T04:15:48.136Z,21.03
2017-07-14T04:18:14.782Z,21.53
2017-07-14T04:20:41.464Z,19.90
2017-07-14T04:23:08.135Z,23.00
2017-07-14T04:25:34.793Z,22.80
2017-07-14T04:28:01.464Z,21.07
2017-07-14T04:30:28.128Z,23.33
2017-07-14T04:32:54.776Z,28.53
2017-07-14T04:35:21.448Z,22.27
2017-07-14T04:37:48.110Z,23.77
2017-07-14T04:40:14.757Z,25.13
2017-07-14T04:42:41.459Z,25.80
2017-07-14T04:45:08.119Z,28.17
2017-07-14T04:47:34.763Z,25.53
2017-07-14T04:50:01.444Z,32.10
2017-07-14T04:52:28.101Z,26.23
2017-07-14T04:54:54.747Z,22.90
2017-07-14T04:57:21.440Z,29.50
2017-07-14T04:59:48.103Z,31.00
2017-07-14T05:02:14.763Z,25.60
2017-07-14T05:04:41.439Z,20.83
2017-07-14T05:07:08.089Z,24.23
2017-07-14T05:09:34.751Z,19.77
2017-07-14T05:12:01.419Z,18.97
2017-07-14T05:14:28.103Z,15.23
2017-07-14T05:16:54.756Z,18.10
2017-07-14T05:19:21.455Z,17.87
2017-07-14T05:21:48.100Z,21.67
2017-07-14T05:24:14.736Z,21.90
2017-07-14T05:26:41.412Z,22.73
2017-07-14T05:29:08.090Z,19.07
2017-07-14T05:31:34.740Z,16.03
2017-07-14T05:34:01.412Z,16.63
2017-07-14T05:36:28.078Z,19.60
2017-07-14T05:38:54.756Z,15.30
2017-07-14T05:41:21.397Z,13.57
2017-07-14T05:43:48.041Z,19.07
2017-07-14T05:46:14.716Z,16.77
2017-07-14T05:48:41.360Z,11.43
2017-07-14T05:51:08.010Z,17.50
2017-07-14T05:53:34.703Z,14.83
2017-07-14T05:56:01.362Z,14.73
2017-07-14T05:58:28.016Z,15.50
2017-07-14T06:00:54.713Z,25.83
2017-07-14T06:03:21.376Z,14.00
2017-07-14T06:05:48.039Z,14.80
2017-07-14T06:08:14.736Z,12.30
2017-07-14T06:10:41.446Z,12.40
2017-07-14T06:13:08.107Z,17.60
2017-07-14T06:15:34.776Z,12.87
2017-07-14T06:18:01.415Z,18.30
2017-07-14T06:20:28.064Z,16.53
2017-07-14T06:22:54.739Z,13.07
2017-07-14T06:25:21.385Z,14.20
2017-07-14T06:27:48.047Z,12.57
2017-07-14T06:30:14.747Z,17.27
2017-07-14T06:32:41.419Z,13.93
2017-07-14T06:35:08.089Z,12.50
2017-07-14T06:37:34.766Z,10.87
2017-07-14T06:40:01.435Z,16.83
2017-07-14T06:42:28.103Z,11.47
2017-07-14T06:44:54.795Z,12.00
2017-07-14T06:47:21.448Z,13.60
2017-07-14T06:49:48.119Z,10.50
2017-07-14T06:52:14.812Z,11.93
2017-07-14T06:54:41.504Z,9.00
2017-07-14T06:57:08.192Z,11.03
2017-07-14T06:59:34.844Z,9.47
2017-07-14T07:02:01.507Z,8.73
2017-07-14T07:04:28.168Z,10.90
2017-07-14T07:06:54.817Z,11.40
2017-07-14T07:09:21.564Z,10.80
2017-07-14T07:11:48.205Z,9.00
2017-07-14T07:14:14.860Z,8.77
2017-07-14T07:16:41.572Z,10.83
2017-07-14T07:19:08.228Z,8.07
2017-07-14T07:21:34.889Z,12.70
2017-07-14T07:24:01.595Z,11.50
2017-07-14T07:26:28.244Z,7.30
2017-07-14T07:28:54.885Z,10.00
2017-07-14T07:31:21.574Z,7.33
2017-07-14T07:33:48.281Z,9.20
2017-07-14T07:36:14.925Z,8.00
2017-07-14T07:38:41.560Z,8.13
2017-07-14T07:41:08.216Z,7.10
2017-07-14T07:43:34.882Z,7.63
2017-07-14T07:46:01.523Z,11.17
2017-07-14T07:48:34.039Z,8.87
2017-07-14T07:51:00.700Z,9.50
2017-07-14T07:53:27.357Z,7.63
2017-07-14T07:55:54.034Z,8.00
2017-07-14T07:58:20.684Z,7.17
2017-07-14T08:00:47.351Z,12.73
2017-07-14T08:03:17.709Z,11.33
2017-07-14T08:05:44.367Z,11.13
2017-07-14T08:08:11.040Z,6.90
2017-07-14T08:10:37.716Z,12.50
2017-07-14T08:13:04.366Z,8.67
2017-07-14T08:15:31.001Z,6.13
2017-07-14T08:17:57.679Z,6.23
2017-07-14T08:20:24.343Z,6.27
2017-07-14T08:22:51.012Z,6.70
2017-07-14T08:25:17.713Z,8.27
2017-07-14T08:27:44.363Z,7.00
2017-07-14T08:30:11.000Z,5.50
2017-07-14T08:32:37.661Z,6.80
2017-07-14T08:35:04.305Z,7.67
2017-07-14T08:37:30.948Z,5.10
2017-07-14T08:39:57.644Z,11.30
2017-07-14T08:42:24.280Z,9.50
2017-07-14T08:44:50.920Z,4.60
2017-07-14T08:47:17.592Z,4.20
2017-07-14T08:49:44.246Z,4.70
2017-07-14T08:52:10.894Z,4.73
2017-07-14T08:54:37.573Z,4.37
2017-07-14T08:57:04.226Z,4.23
2017-07-14T08:59:30.860Z,4.53
2017-07-14T09:01:57.515Z,5.93
2017-07-14T09:04:24.165Z,3.60
2017-07-14T09:06:50.837Z,4.13
2017-07-14T09:09:17.480Z,2.73
2017-07-14T09:11:44.121Z,6.37
2017-07-14T09:14:10.792Z,3.53
2017-07-14T09:16:37.434Z,5.47
2017-07-14T09:19:04.068Z,2.33
2017-07-14T09:21:30.747Z,2.93
2017-07-14T09:23:57.402Z,4.33
2017-07-14T09:26:24.051Z,3.87
2017-07-14T09:28:50.792Z,4.30
2017-07-14T09:31:17.444Z,3.23
2017-07-14T09:33:44.105Z,4.83
2017-07-14T09:36:10.802Z,4.23
2017-07-14T09:38:37.470Z,3.70
2017-07-14T09:41:04.127Z,4.20
2017-07-14T09:43:30.845Z,3.73
2017-07-14T09:45:57.531Z,3.57
2017-07-14T09:48:24.173Z,4.57
2017-07-14T09:50:50.817Z,7.33
2017-07-14T09:53:17.507Z,6.40
2017-07-14T09:55:44.155Z,4.80
2017-07-14T09:58:10.818Z,3.20
2017-07-14T10:00:37.485Z,2.77
2017-07-14T10:03:04.152Z,5.93
2017-07-14T10:05:30.797Z,4.30
2017-07-14T10:07:57.447Z,2.87
2017-07-14T10:10:24.089Z,3.07
2017-07-14T10:12:50.748Z,4.10
2017-07-14T10:15:17.427Z,4.23
2017-07-14T10:17:44.082Z,4.73
2017-07-14T10:20:10.732Z,6.50
2017-07-14T10:22:37.404Z,6.90
2017-07-14T10:25:04.061Z,4.23
2017-07-14T10:27:30.709Z,5.27
2017-07-14T10:29:57.381Z,5.40
2017-07-14T10:32:24.021Z,5.00
2017-07-14T10:34:50.675Z,7.33
2017-07-14T10:37:17.348Z,7.50
2017-07-14T10:39:44.013Z,7.67
2017-07-14T10:42:10.690Z,7.73
2017-07-14T10:44:37.375Z,5.60
2017-07-14T10:47:04.030Z,4.20
2017-07-14T10:49:30.668Z,5.77
2017-07-14T10:51:57.336Z,4.17
2017-07-14T10:54:23.969Z,5.30
2017-07-14T10:56:50.616Z,5.87
2017-07-14T10:59:17.273Z,4.10
2017-07-14T11:01:43.913Z,4.77
2017-07-14T11:04:10.547Z,4.03
2017-07-14T11:06:37.235Z,4.73
2017-07-14T11:09:03.895Z,5.43
2017-07-14T11:11:30.555Z,5.00
2017-07-14T11:13:57.251Z,5.10
2017-07-14T11:16:23.913Z,3.77
2017-07-14T11:18:50.574Z,4.60
2017-07-14T11:21:17.240Z,4.23
2017-07-14T11:23:43.934Z,4.83
2017-07-14T11:26:10.607Z,3.00
2017-07-14T11:28:37.256Z,4.43
2017-07-14T11:31:03.951Z,5.33
2017-07-14T11:33:30.592Z,5.57
2017-07-14T11:35:57.228Z,6.40
2017-07-14T11:38:23.899Z,5.53
2017-07-14T11:40:50.547Z,7.43
2017-07-14T11:43:17.203Z,6.00
2017-07-14T11:45:43.887Z,9.10
2017-07-14T11:48:10.519Z,8.10
2017-07-14T11:50:37.165Z,7.10
2017-07-14T11:53:03.901Z,6.67
2017-07-14T11:55:30.562Z,8.93
2017-07-14T11:57:57.201Z,6.63
2017-07-14T12:00:23.901Z,6.50
2017-07-14T12:02:50.541Z,8.03
2017-07-14T12:05:17.194Z,5.97
2017-07-14T12:07:43.843Z,6.27
2017-07-14T12:10:10.506Z,5.03
2017-07-14T12:12:37.146Z,5.00
2017-07-14T12:15:03.855Z,5.07
2017-07-14T12:17:30.497Z,5.30
2017-07-14T12:19:57.201Z,3.90
2017-07-14T12:22:23.882Z,3.27
2017-07-14T12:24:50.542Z,5.60
2017-07-14T12:27:17.199Z,4.30
2017-07-14T12:29:43.861Z,3.00
2017-07-14T12:32:10.522Z,4.47
2017-07-14T12:34:37.184Z,3.53
2017-07-14T12:37:03.872Z,4.00
2017-07-14T12:39:30.513Z,2.80
2017-07-14T12:41:57.167Z,3.70
2017-07-14T12:44:23.925Z,3.30
2017-07-14T12:46:50.618Z,2.93
2017-07-14T12:49:17.283Z,4.20
2017-07-14T12:51:43.935Z,4.73
2017-07-14T12:54:10.614Z,3.87
2017-07-14T12:56:37.253Z,5.73
2017-07-14T12:59:03.917Z,3.10
2017-07-14T13:01:30.588Z,4.30
2017-07-14T13:03:57.247Z,3.73
2017-07-14T13:06:23.963Z,4.33
2017-07-14T13:08:50.619Z,5.27
2017-07-14T13:11:17.257Z,3.70
2017-07-14T13:13:43.931Z,3.87
2017-07-14T13:16:10.592Z,3.50
2017-07-14T13:18:37.255Z,4.80
2017-07-14T13:21:03.947Z,4.70
2017-07-14T13:23:30.606Z,5.17
2017-07-14T13:25:57.240Z,4.10
2017-07-14T13:28:23.962Z,3.43
2017-07-14T13:30:50.655Z,4.60
2017-07-14T13:33:17.315Z,4.70
2017-07-14T13:35:44.000Z,4.87
2017-07-14T13:38:10.638Z,4.73
2017-07-14T13:40:37.304Z,4.33
2017-07-14T13:43:03.968Z,5.13
2017-07-14T13:45:30.629Z,4.27
2017-07-14T13:47:57.265Z,5.80
2017-07-14T13:50:23.967Z,6.10
2017-07-14T13:52:50.640Z,7.83
2017-07-14T13:55:17.291Z,3.87
2017-07-14T13:57:43.978Z,4.00
2017-07-14T14:00:10.639Z,3.90
2017-07-14T14:02:37.286Z,5.60
2017-07-14T14:05:03.969Z,5.63
2017-07-14T14:07:30.617Z,3.10
2017-07-14T14:09:57.257Z,3.23
2017-07-14T14:12:23.948Z,3.17
2017-07-14T14:14:50.598Z,3.37
2017-07-14T14:17:17.693Z,2.73
2017-07-14T14:19:44.387Z,2.37
2017-07-14T14:22:11.054Z,3.70
2017-07-14T14:24:37.733Z,2.03
2017-07-14T14:27:04.372Z,3.60
2017-07-14T14:29:31.068Z,2.23
2017-07-14T14:31:57.935Z,3.20
2017-07-14T14:34:24.852Z,3.20
2017-07-14T14:36:51.985Z,4.43
2017-07-14T14:39:18.674Z,3.50
2017-07-14T14:41:45.385Z,3.30
2017-07-14T14:44:12.677Z,2.93
2017-07-14T14:46:39.332Z,3.77
2017-07-14T14:49:06.002Z,3.57
2017-07-14T14:51:32.776Z,4.67
2017-07-14T14:53:59.434Z,2.73
2017-07-14T14:56:26.079Z,2.60
2017-07-14T14:58:52.770Z,2.50
2017-07-14T15:01:19.426Z,2.30
2017-07-14T15:03:46.083Z,2.37
2017-07-14T15:06:12.764Z,2.67
2017-07-14T15:08:39.419Z,2.63
2017-07-14T15:11:06.081Z,4.47
2017-07-14T15:13:32.751Z,2.27
2017-07-14T15:15:59.411Z,2.80
2017-07-14T15:18:26.056Z,2.60
2017-07-14T15:20:53.432Z,2.80
2017-07-14T15:23:20.104Z,2.50
2017-07-14T15:25:46.804Z,2.90
2017-07-14T15:28:13.470Z,3.00
2017-07-14T15:30:40.125Z,4.40
2017-07-14T15:33:06.789Z,4.13
2017-07-14T15:35:33.444Z,3.47
2017-07-14T15:38:00.080Z,3.57
2017-07-14T15:40:26.761Z,3.30
2017-07-14T15:42:53.438Z,5.57
2017-07-14T15:45:20.290Z,2.43
2017-07-14T15:47:46.962Z,5.90
2017-07-14T15:50:13.637Z,2.63
2017-07-14T15:52:40.289Z,2.67
2017-07-14T15:55:06.982Z,2.40
2017-07-14T15:57:33.628Z,3.40
2017-07-14T16:00:00.315Z,2.63
2017-07-14T16:02:27.864Z,4.07
2017-07-14T16:04:54.532Z,3.10
2017-07-14T16:07:21.195Z,2.70
2017-07-14T16:09:47.893Z,4.60
2017-07-14T16:12:14.558Z,2.30
2017-07-14T16:14:41.208Z,2.73
2017-07-14T16:17:07.880Z,3.03
2017-07-14T16:19:34.552Z,3.00
2017-07-14T16:22:01.187Z,2.80
2017-07-14T16:24:27.929Z,2.20
2017-07-14T16:26:54.578Z,3.20
2017-07-14T16:29:21.236Z,2.40
2017-07-14T16:31:47.974Z,3.03
2017-07-14T16:34:14.668Z,2.97
2017-07-14T16:36:41.377Z,2.20
2017-07-14T16:39:08.045Z,2.20
2017-07-14T16:41:34.706Z,3.40
2017-07-14T16:44:01.359Z,2.70
2017-07-14T16:46:28.018Z,4.23
2017-07-14T16:48:54.656Z,3.00
2017-07-14T16:51:21.316Z,2.20
2017-07-14T16:53:47.991Z,6.30
2017-07-14T16:56:14.669Z,6.00
2017-07-14T16:58:41.319Z,2.40
2017-07-14T17:01:08.008Z,3.07
2017-07-14T17:03:34.656Z,1.93
2017-07-14T17:06:01.315Z,4.70
2017-07-14T17:08:28.014Z,2.33
2017-07-14T17:10:54.912Z,2.67
2017-07-14T17:13:21.575Z,5.43
2017-07-14T17:15:48.212Z,3.60
2017-07-14T17:18:14.893Z,2.90
2017-07-14T17:20:41.552Z,2.83
2017-07-14T17:23:08.202Z,2.50
2017-07-14T17:25:34.884Z,4.60
2017-07-14T17:28:01.817Z,3.10
2017-07-14T17:30:28.487Z,3.93
2017-07-14T17:32:55.194Z,3.70
2017-07-14T17:35:21.839Z,2.90
2017-07-14T17:37:48.485Z,2.20
2017-07-14T17:40:15.273Z,3.07
2017-07-14T17:42:41.905Z,4.00
2017-07-14T17:45:08.560Z,3.70
2017-07-14T17:47:35.235Z,2.63
2017-07-14T17:50:01.884Z,5.33
2017-07-14T17:52:28.691Z,2.33
2017-07-14T17:54:55.402Z,3.00
2017-07-14T17:57:23.324Z,3.40
2017-07-14T17:59:50.030Z,6.20
2017-07-14T18:02:22.191Z,6.50
2017-07-14T18:04:48.861Z,4.37
2017-07-14T18:07:15.531Z,2.67
2017-07-14T18:09:42.380Z,2.80
2017-07-14T18:12:09.038Z,5.43
2017-07-14T18:14:35.705Z,2.67
2017-07-14T18:17:02.394Z,5.20
2017-07-14T18:19:29.049Z,2.13
2017-07-14T18:21:55.687Z,3.43
2017-07-14T18:24:22.400Z,6.60
2017-07-14T18:26:49.072Z,3.60
2017-07-14T18:29:16.038Z,5.60
2017-07-14T18:31:42.798Z,2.50
2017-07-14T18:34:09.451Z,6.73
2017-07-14T18:36:36.091Z,2.70
2017-07-14T18:39:02.813Z,4.40
2017-07-14T18:41:29.505Z,4.70
2017-07-14T18:43:56.204Z,3.33
2017-07-14T18:46:22.908Z,2.90
2017-07-14T18:48:49.589Z,4.90
2017-07-14T18:51:16.271Z,2.67
2017-07-14T18:53:42.908Z,2.30
2017-07-14T18:56:09.549Z,5.63
2017-07-14T18:58:36.243Z,4.40
2017-07-14T19:01:02.958Z,3.57
2017-07-14T19:03:29.613Z,3.20
2017-07-14T19:05:56.297Z,5.63
2017-07-14T19:08:22.965Z,3.97
2017-07-14T19:10:49.609Z,2.80
2017-07-14T19:13:16.265Z,2.33
2017-07-14T19:15:42.957Z,3.87
2017-07-14T19:18:09.595Z,2.20
2017-07-14T19:20:36.251Z,5.53
2017-07-14T19:23:02.935Z,2.13
2017-07-14T19:25:29.613Z,4.00
2017-07-14T19:27:56.766Z,5.33
2017-07-14T19:30:23.452Z,3.47
2017-07-14T19:32:50.126Z,2.30
2017-07-14T19:35:16.771Z,8.40
2017-07-14T19:37:43.430Z,4.53
2017-07-14T19:40:10.111Z,5.33
2017-07-14T19:42:36.751Z,2.87
2017-07-14T19:45:03.405Z,8.37
2017-07-14T19:47:30.081Z,4.90
2017-07-14T19:49:56.753Z,2.53
2017-07-14T19:52:23.400Z,6.40
2017-07-14T19:54:50.082Z,3.80
2017-07-14T19:57:16.727Z,5.73
2017-07-14T19:59:43.388Z,7.03
2017-07-14T20:02:10.054Z,5.97
2017-07-14T20:04:36.697Z,4.30
2017-07-14T20:07:03.378Z,3.67
2017-07-14T20:09:30.079Z,4.67
2017-07-14T20:11:56.739Z,7.10
2017-07-14T20:14:23.399Z,3.53
2017-07-14T20:16:50.067Z,6.57
2017-07-14T20:19:16.709Z,2.53
2017-07-14T20:21:43.344Z,2.33
2017-07-14T20:24:10.030Z,3.70
2017-07-14T20:26:36.668Z,3.40
2017-07-14T20:29:03.319Z,4.27
2017-07-14T20:31:29.987Z,2.63
2017-07-14T20:33:56.629Z,7.13
2017-07-14T20:36:23.283Z,4.70
2017-07-14T20:38:49.967Z,4.50
2017-07-14T20:41:16.637Z,3.30
2017-07-14T20:43:43.292Z,5.90
2017-07-14T20:46:09.979Z,3.67
2017-07-14T20:48:36.616Z,4.00
2017-07-14T20:51:03.262Z,2.60
2017-07-14T20:53:29.955Z,4.30
2017-07-14T20:55:56.924Z,7.63
2017-07-14T20:58:23.605Z,11.33
2017-07-14T21:00:50.289Z,4.40
2017-07-14T21:03:17.057Z,3.00
2017-07-14T21:05:43.717Z,3.93
2017-07-14T21:08:10.360Z,5.03
2017-07-14T21:10:37.044Z,4.47
2017-07-14T21:13:03.726Z,3.00
2017-07-14T21:15:30.361Z,9.20
2017-07-14T21:17:56.998Z,5.80
2017-07-14T21:20:23.690Z,5.47
2017-07-14T21:22:50.370Z,5.50
2017-07-14T21:25:17.008Z,5.07
2017-07-14T21:27:43.706Z,5.80
2017-07-14T21:30:10.383Z,11.20
2017-07-14T21:32:37.027Z,4.47
2017-07-14T21:35:03.655Z,2.30
2017-07-14T21:37:30.325Z,4.33
2017-07-14T21:39:56.993Z,4.45
2017-07-14T21:42:24.090Z,5.18
2017-07-14T21:44:50.756Z,7.23
2017-07-14T21:47:17.410Z,5.47
2017-07-14T21:49:44.065Z,5.23
2017-07-14T21:52:10.735Z,2.77
2017-07-14T21:54:37.375Z,2.10
2017-07-14T21:57:04.043Z,3.07
2017-07-14T21:59:30.684Z,5.43
2017-07-14T22:01:57.359Z,5.17
2017-07-14T22:04:24.051Z,3.10
2017-07-14T22:06:50.722Z,11.37
2017-07-14T22:09:17.383Z,2.60
2017-07-14T22:11:44.060Z,5.00
2017-07-14T22:14:10.833Z,2.13
2017-07-14T22:16:37.524Z,7.20
2017-07-14T22:19:04.184Z,6.37
2017-07-14T22:21:31.009Z,5.23
2017-07-14T22:23:57.677Z,2.40
2017-07-14T22:26:24.373Z,3.50
2017-07-14T22:28:51.119Z,8.48
2017-07-14T22:31:17.819Z,2.92
2017-07-14T22:33:44.502Z,6.17
2017-07-14T22:36:11.287Z,7.53
2017-07-14T22:38:38.120Z,4.90
2017-07-14T22:41:04.815Z,3.37
2017-07-14T22:43:31.529Z,2.93
2017-07-14T22:45:58.254Z,4.50
2017-07-14T22:48:25.063Z,5.27
2017-07-14T22:50:51.761Z,7.23
2017-07-14T22:53:18.495Z,4.60
2017-07-14T22:55:45.146Z,4.60
2017-07-14T22:58:11.798Z,3.60
2017-07-14T23:00:38.508Z,7.70
2017-07-14T23:03:05.160Z,4.00
2017-07-14T23:05:31.817Z,5.57
2017-07-14T23:07:58.507Z,4.70
2017-07-14T23:10:25.159Z,4.07
2017-07-14T23:12:51.832Z,4.40
2017-07-14T23:15:18.520Z,3.23
2017-07-14T23:17:45.203Z,3.93
2017-07-14T23:20:11.858Z,5.37
2017-07-14T23:22:38.508Z,7.33
2017-07-14T23:25:05.166Z,5.47
2017-07-14T23:27:31.827Z,5.63
2017-07-14T23:29:58.504Z,5.80
2017-07-14T23:32:25.183Z,6.20
2017-07-14T23:34:51.831Z,6.93
2017-07-14T23:37:18.492Z,4.37
2017-07-14T23:39:45.172Z,5.93
2017-07-14T23:42:11.842Z,6.90
2017-07-14T23:44:38.524Z,4.40
2017-07-14T23:47:05.188Z,7.00
2017-07-14T23:49:31.859Z,3.83
2017-07-14T23:51:58.509Z,3.97
2017-07-14T23:54:25.157Z,5.73
2017-07-14T23:56:51.828Z,5.27
2017-07-14T23:59:18.475Z,5.03
